createdAt,value
2023-03-07T00:01:34.670Z,-3.23
2023-03-07T00:04:04.229Z,-3.21
2023-03-07T00:06:33.611Z,-3.16
2023-03-07T00:09:03.967Z,-3.20
2023-03-07T00:11:34.120Z,-3.03
2023-03-07T00:14:08.594Z,-2.97
2023-03-07T00:16:38.490Z,-3.00
2023-03-07T00:19:08.399Z,-2.98
2023-03-07T00:21:38.315Z,-3.02
2023-03-07T00:24:10.862Z,-2.97
2023-03-07T00:26:40.275Z,-2.93
2023-03-07T00:29:11.694Z,-2.95
2023-03-07T00:31:41.377Z,-2.83
2023-03-07T00:34:11.393Z,-2.94
2023-03-07T00:36:39.738Z,-2.82
2023-03-07T00:39:08.484Z,-2.86
2023-03-07T00:41:37.101Z,-2.74
2023-03-07T00:44:05.271Z,-2.89
2023-03-07T00:46:33.564Z,-3.02
2023-03-07T00:49:01.962Z,-2.95
2023-03-07T00:51:30.405Z,-2.85
2023-03-07T00:53:58.864Z,-2.98
2023-03-07T00:56:27.327Z,-2.96
2023-03-07T00:58:55.632Z,-2.83
2023-03-07T01:01:26.207Z,-2.74
2023-03-07T01:03:56.431Z,-2.72
2023-03-07T01:06:30.733Z,-2.75
2023-03-07T01:09:04.349Z,-2.85
2023-03-07T01:11:37.718Z,-2.90
2023-03-07T01:14:07.268Z,-2.88
2023-03-07T01:16:39.234Z,-2.69
2023-03-07T01:19:14.513Z,-2.64
2023-03-07T01:21:44.588Z,-2.67
2023-03-07T01:24:15.974Z,-2.49
2023-03-07T01:26:43.826Z,-2.71
2023-03-07T01:29:13.807Z,-2.76
2023-03-07T01:31:43.567Z,-2.59
2023-03-07T01:34:13.565Z,-2.68
2023-03-07T01:36:43.536Z,-2.60
2023-03-07T01:39:17.202Z,-2.60
2023-03-07T01:41:46.822Z,-2.40
2023-03-07T01:44:25.920Z,-2.47
2023-03-07T01:47:00.618Z,-2.53
2023-03-07T01:49:41.000Z,-2.51
2023-03-07T01:52:22.162Z,-2.42
2023-03-07T01:55:10.569Z,-2.31
2023-03-07T01:57:47.263Z,-2.14
2023-03-07T02:00:30.023Z,-1.90
2023-03-07T02:03:33.746Z,-1.85
2023-03-07T02:06:10.840Z,-1.90
2023-03-07T02:08:44.907Z,-1.80
2023-03-07T02:11:16.767Z,-1.83
2023-03-07T02:13:46.843Z,-1.80
2023-03-07T02:16:17.377Z,-1.64
2023-03-07T02:18:50.498Z,-1.67
2023-03-07T02:22:03.260Z,-1.71
2023-03-07T02:25:03.249Z,-1.60
2023-03-07T02:27:39.786Z,-1.65
2023-03-07T02:30:09.779Z,-1.62
2023-03-07T02:32:39.927Z,-1.52
2023-03-07T02:35:21.178Z,-1.52
2023-03-07T02:37:59.859Z,-1.67
2023-03-07T02:40:32.979Z,-1.66
2023-03-07T02:43:09.668Z,-1.69
2023-03-07T02:45:39.872Z,-1.64
2023-03-07T02:48:08.087Z,-1.62
2023-03-07T02:50:36.715Z,-1.65
2023-03-07T02:53:05.394Z,-1.44
2023-03-07T02:55:33.860Z,-1.46
2023-03-07T02:58:02.350Z,-1.44
2023-03-07T03:00:30.529Z,-1.55
2023-03-07T03:02:59.521Z,-1.69
2023-03-07T03:05:29.778Z,-1.53
2023-03-07T03:07:59.951Z,-1.48
2023-03-07T03:10:30.416Z,-1.40
2023-03-07T03:13:00.505Z,-1.37
2023-03-07T03:15:30.600Z,-1.36
2023-03-07T03:18:00.801Z,-1.41
2023-03-07T03:20:30.963Z,-1.51
2023-03-07T03:23:01.005Z,-1.50
2023-03-07T03:25:31.081Z,-1.41
2023-03-07T03:28:01.123Z,-1.27
2023-03-07T03:30:32.574Z,-1.41
2023-03-07T03:33:04.120Z,-1.51
2023-03-07T03:35:34.254Z,-1.50
2023-03-07T03:38:04.324Z,-1.47
2023-03-07T03:40:34.355Z,-1.34
2023-03-07T03:43:04.395Z,-1.32
2023-03-07T03:45:34.425Z,-1.21
2023-03-07T03:48:04.854Z,-1.26
2023-03-07T03:50:35.057Z,-1.34
2023-03-07T03:53:05.110Z,-1.24
2023-03-07T03:55:35.114Z,-1.33
2023-03-07T03:58:05.199Z,-1.26
2023-03-07T04:00:35.324Z,-1.16
2023-03-07T04:03:05.487Z,-0.97
2023-03-07T04:05:35.564Z,-1.04
2023-03-07T04:08:05.593Z,-0.97
2023-03-07T04:10:35.659Z,-0.88
2023-03-07T04:13:05.729Z,-0.76
2023-03-07T04:15:35.777Z,-0.87
2023-03-07T04:18:05.896Z,-0.89
2023-03-07T04:20:35.969Z,-0.90
2023-03-07T04:23:06.084Z,-0.82
2023-03-07T04:25:36.410Z,-0.68
2023-03-07T04:28:06.619Z,-0.81
2023-03-07T04:30:36.633Z,-0.99
2023-03-07T04:33:06.709Z,-0.71
2023-03-07T04:35:37.043Z,-0.88
2023-03-07T04:38:07.468Z,-0.81
2023-03-07T04:40:37.608Z,-0.68
2023-03-07T04:43:08.250Z,-0.85
2023-03-07T04:45:38.299Z,-0.75
2023-03-07T04:48:08.576Z,-0.79
2023-03-07T04:50:38.628Z,-0.84
2023-03-07T04:53:08.666Z,-0.82
2023-03-07T04:55:38.729Z,-0.80
2023-03-07T04:58:12.962Z,-0.72
2023-03-07T05:00:46.169Z,-0.78
2023-03-07T05:03:15.528Z,-0.78
2023-03-07T05:05:42.845Z,-0.82
2023-03-07T05:08:11.267Z,-0.85
2023-03-07T05:10:39.939Z,-0.94
2023-03-07T05:13:08.788Z,-0.87
2023-03-07T05:15:38.496Z,-0.94
2023-03-07T05:18:07.018Z,-0.72
2023-03-07T05:20:34.963Z,-0.77
2023-03-07T05:23:03.295Z,-0.88
2023-03-07T05:25:31.795Z,-0.91
2023-03-07T05:28:00.196Z,-0.83
2023-03-07T05:30:28.624Z,-0.86
2023-03-07T05:32:57.060Z,-0.86
2023-03-07T05:35:25.675Z,-0.90
2023-03-07T05:37:53.933Z,-0.79
2023-03-07T05:40:22.480Z,-0.71
2023-03-07T05:42:50.794Z,-0.78
2023-03-07T05:45:21.190Z,-1.01
2023-03-07T05:47:50.653Z,-1.05
2023-03-07T05:50:21.029Z,-0.96
2023-03-07T05:52:48.766Z,-0.92
2023-03-07T05:55:17.044Z,-0.79
2023-03-07T05:57:45.245Z,-0.94
2023-03-07T06:00:16.195Z,-0.82
2023-03-07T06:02:45.086Z,-0.78
2023-03-07T06:05:14.350Z,-0.87
2023-03-07T06:07:42.067Z,-0.74
2023-03-07T06:10:13.761Z,-0.73
2023-03-07T06:12:43.590Z,-0.73
2023-03-07T06:15:13.630Z,-0.78
2023-03-07T06:17:43.887Z,-0.84
2023-03-07T06:20:16.105Z,-0.72
2023-03-07T06:22:45.435Z,-0.54
2023-03-07T06:25:17.053Z,-0.73
2023-03-07T06:27:46.290Z,-0.52
2023-03-07T06:30:17.859Z,-0.41
2023-03-07T06:32:46.654Z,-0.55
2023-03-07T06:35:15.260Z,-0.42
2023-03-07T06:37:43.663Z,-0.47
2023-03-07T06:40:12.461Z,-0.49
2023-03-07T06:42:40.598Z,-0.50
2023-03-07T06:45:09.710Z,-0.46
2023-03-07T06:47:37.706Z,-0.55
2023-03-07T06:50:07.378Z,-0.42
2023-03-07T06:52:34.568Z,-0.37
2023-03-07T06:55:03.618Z,-0.34
2023-03-07T06:57:33.567Z,-0.37
2023-03-07T07:00:06.903Z,-0.26
2023-03-07T07:02:36.394Z,-0.25
2023-03-07T07:05:07.031Z,-0.37
2023-03-07T07:07:36.766Z,-0.42
2023-03-07T07:10:07.279Z,-0.35
2023-03-07T07:12:37.171Z,-0.43
2023-03-07T07:15:06.605Z,-0.25
2023-03-07T07:17:40.903Z,-0.26
2023-03-07T07:20:11.382Z,-0.10
2023-03-07T07:22:41.584Z,-0.11
2023-03-07T07:25:11.847Z,-0.12
2023-03-07T07:27:41.963Z,-0.02
2023-03-07T07:30:13.982Z,0.04
2023-03-07T07:32:45.104Z,0.11
2023-03-07T07:35:15.686Z,0.08
2023-03-07T07:37:45.766Z,0.19
2023-03-07T07:40:15.944Z,0.13
2023-03-07T07:42:54.651Z,0.15
2023-03-07T07:45:25.017Z,0.43
2023-03-07T07:47:55.179Z,0.54
2023-03-07T07:50:25.294Z,0.46
2023-03-07T07:52:55.372Z,0.53
2023-03-07T07:55:25.941Z,0.48
2023-03-07T07:57:56.029Z,0.29
2023-03-07T08:00:26.670Z,0.28
2023-03-07T08:02:56.768Z,0.20
2023-03-07T08:05:27.146Z,0.43
2023-03-07T08:07:57.437Z,0.50
2023-03-07T08:10:27.643Z,0.37
2023-03-07T08:12:57.664Z,0.43
2023-03-07T08:15:27.971Z,0.53
2023-03-07T08:17:59.159Z,0.49
2023-03-07T08:20:29.355Z,0.60
2023-03-07T08:22:59.515Z,0.57
2023-03-07T08:25:30.524Z,0.70
2023-03-07T08:28:03.260Z,0.67
2023-03-07T08:30:37.060Z,0.78
2023-03-07T08:33:07.499Z,0.80
2023-03-07T08:35:37.683Z,0.94
2023-03-07T08:38:09.039Z,1.04
2023-03-07T08:40:39.289Z,0.99
2023-03-07T08:43:09.344Z,1.11
2023-03-07T08:45:41.291Z,1.10
2023-03-07T08:48:11.379Z,1.21
2023-03-07T08:50:41.453Z,1.35
2023-03-07T08:53:11.470Z,1.40
2023-03-07T08:55:41.689Z,1.63
2023-03-07T08:58:11.284Z,1.68
2023-03-07T09:00:40.377Z,1.77
2023-03-07T09:03:09.784Z,1.86
2023-03-07T09:05:39.338Z,2.01
2023-03-07T09:08:08.446Z,1.92
2023-03-07T09:10:38.566Z,1.97
2023-03-07T09:13:08.593Z,1.98
2023-03-07T09:15:40.269Z,2.08
2023-03-07T09:18:11.805Z,2.18
2023-03-07T09:20:41.822Z,2.32
2023-03-07T09:23:11.898Z,2.22
2023-03-07T09:25:41.942Z,2.42
2023-03-07T09:28:12.008Z,2.48
2023-03-07T09:30:42.148Z,2.82
2023-03-07T09:33:12.235Z,2.92
2023-03-07T09:35:42.380Z,2.86
2023-03-07T09:38:12.484Z,2.91
2023-03-07T09:40:48.590Z,3.00
2023-03-07T09:43:33.663Z,3.17
2023-03-07T09:46:35.921Z,3.13
2023-03-07T09:49:28.813Z,3.26
2023-03-07T09:52:02.638Z,3.42
2023-03-07T09:55:02.547Z,3.22
2023-03-07T09:57:51.602Z,3.30
2023-03-07T10:00:41.365Z,3.21
2023-03-07T10:03:52.255Z,3.05
2023-03-07T10:06:41.072Z,3.15
2023-03-07T10:09:23.457Z,3.01
2023-03-07T10:12:44.227Z,2.85
2023-03-07T10:15:47.957Z,2.94
2023-03-07T10:19:04.983Z,2.96
2023-03-07T10:22:12.289Z,2.92
2023-03-07T10:25:27.133Z,2.79
2023-03-07T10:28:26.491Z,2.72
2023-03-07T10:31:26.566Z,2.62
2023-03-07T10:33:58.234Z,2.75
2023-03-07T10:36:51.602Z,2.78
2023-03-07T10:39:46.845Z,2.91
2023-03-07T10:42:23.710Z,2.85
2023-03-07T10:44:54.360Z,2.85
2023-03-07T10:47:29.250Z,2.98
2023-03-07T10:50:48.798Z,3.09
2023-03-07T10:53:31.050Z,3.11
2023-03-07T10:56:15.700Z,2.99
2023-03-07T10:59:09.818Z,3.09
2023-03-07T11:01:58.072Z,3.06
2023-03-07T11:04:45.972Z,2.82
2023-03-07T11:07:36.984Z,2.88
2023-03-07T11:10:39.837Z,2.89
2023-03-07T11:13:22.099Z,2.76
2023-03-07T11:15:57.961Z,2.65
2023-03-07T11:18:43.970Z,2.72
2023-03-07T11:21:35.938Z,2.76
2023-03-07T11:24:25.843Z,2.53
2023-03-07T11:27:00.011Z,2.48
2023-03-07T11:29:33.732Z,2.57
2023-03-07T11:32:24.408Z,2.61
2023-03-07T11:35:07.976Z,2.69
2023-03-07T11:38:28.909Z,2.56
2023-03-07T11:41:26.469Z,2.46
2023-03-07T11:44:31.133Z,2.53
2023-03-07T11:48:30.958Z,2.34
2023-03-07T11:51:04.712Z,2.37
2023-03-07T11:54:18.607Z,2.46
2023-03-07T11:56:55.923Z,2.38
2023-03-07T12:00:12.331Z,2.19
2023-03-07T12:03:07.032Z,2.27
2023-03-07T12:06:19.620Z,2.33
2023-03-07T12:09:24.800Z,2.37
2023-03-07T12:13:00.481Z,2.24
2023-03-07T12:16:04.417Z,2.37
2023-03-07T12:19:26.935Z,2.25
2023-03-07T12:22:22.710Z,2.18
2023-03-07T12:25:26.426Z,2.21
2023-03-07T12:28:26.214Z,2.13
2023-03-07T12:31:29.947Z,2.00
2023-03-07T12:34:34.374Z,2.01
2023-03-07T12:37:20.326Z,1.96
2023-03-07T12:40:10.320Z,1.87
2023-03-07T12:43:25.176Z,1.72
2023-03-07T12:46:40.356Z,1.87
2023-03-07T12:49:38.010Z,1.71
2023-03-07T12:52:47.470Z,1.50
2023-03-07T12:55:41.511Z,1.47
2023-03-07T12:58:35.659Z,1.49
2023-03-07T13:01:38.657Z,1.70
2023-03-07T13:04:38.797Z,1.45
2023-03-07T13:07:29.914Z,1.46
2023-03-07T13:10:07.625Z,1.35
2023-03-07T13:12:39.087Z,1.25
2023-03-07T13:15:18.242Z,1.27
2023-03-07T13:17:48.122Z,1.17
2023-03-07T13:20:41.683Z,1.15
2023-03-07T13:23:27.595Z,1.05
2023-03-07T13:26:02.709Z,1.05
2023-03-07T13:28:46.803Z,0.94
2023-03-07T13:31:16.742Z,1.00
2023-03-07T13:33:48.112Z,0.83
2023-03-07T13:36:39.282Z,0.87
2023-03-07T13:39:38.961Z,0.96
2023-03-07T13:42:48.693Z,0.99
2023-03-07T13:45:39.679Z,1.16
2023-03-07T13:48:57.558Z,1.18
2023-03-07T13:51:29.795Z,1.13
2023-03-07T13:54:14.022Z,1.17
2023-03-07T13:56:44.347Z,1.24
2023-03-07T13:59:14.233Z,1.11
2023-03-07T14:02:01.524Z,1.01
2023-03-07T14:04:54.337Z,1.00
2023-03-07T14:07:42.520Z,0.92
2023-03-07T14:10:31.697Z,1.04
2023-03-07T14:13:29.547Z,1.01
2023-03-07T14:16:50.763Z,0.96
2023-03-07T14:20:11.329Z,0.84
2023-03-07T14:23:38.245Z,0.68
2023-03-07T14:26:26.381Z,0.78
2023-03-07T14:29:27.034Z,0.71
2023-03-07T14:32:01.099Z,0.81
2023-03-07T14:34:35.660Z,0.81
2023-03-07T14:37:16.832Z,0.84
2023-03-07T14:40:00.102Z,0.94
2023-03-07T14:42:56.962Z,0.88
2023-03-07T14:45:49.868Z,0.80
2023-03-07T14:48:51.251Z,0.84
2023-03-07T14:51:30.248Z,0.78
2023-03-07T14:54:19.528Z,0.99
2023-03-07T14:56:53.291Z,0.94
2023-03-07T14:59:28.879Z,0.92
2023-03-07T15:02:00.280Z,1.00
2023-03-07T15:04:35.863Z,1.11
2023-03-07T15:07:11.442Z,1.31
2023-03-07T15:09:40.646Z,1.21
2023-03-07T15:26:02.144Z,1.33
2023-03-07T15:28:43.067Z,1.37
2023-03-07T15:31:15.267Z,1.37
2023-03-07T15:33:45.404Z,1.33
2023-03-07T15:36:15.328Z,1.32
2023-03-07T15:38:53.410Z,1.19
2023-03-07T15:41:38.078Z,1.19
2023-03-07T15:44:14.085Z,1.24
2023-03-07T15:46:54.615Z,1.23
2023-03-07T15:49:57.223Z,1.28
2023-03-07T15:52:37.574Z,1.26
2023-03-07T15:55:21.569Z,1.23
2023-03-07T15:58:02.463Z,1.16
2023-03-07T16:00:40.911Z,1.15
2023-03-07T16:03:31.033Z,1.15
2023-03-07T16:06:02.514Z,1.08
2023-03-07T16:08:32.227Z,1.08
2023-03-07T16:11:08.154Z,1.09
2023-03-07T16:13:44.546Z,1.05
2023-03-07T16:16:13.967Z,1.06
2023-03-07T16:18:44.421Z,0.98
2023-03-07T16:21:16.935Z,0.98
2023-03-07T16:23:47.384Z,0.90
2023-03-07T16:26:24.000Z,0.90
2023-03-07T16:28:54.343Z,0.96
2023-03-07T16:31:22.430Z,0.88
2023-03-07T16:33:49.986Z,0.78
2023-03-07T16:36:19.846Z,0.78
2023-03-07T16:38:49.641Z,0.81
2023-03-07T16:41:22.644Z,0.76
2023-03-07T16:43:58.870Z,0.72
2023-03-07T16:46:29.630Z,0.59
2023-03-07T16:48:58.275Z,0.59
2023-03-07T16:51:30.468Z,0.49
2023-03-07T16:54:00.303Z,0.52
2023-03-07T16:56:45.114Z,0.57
2023-03-07T16:59:20.708Z,0.46
2023-03-07T17:01:54.961Z,0.38
2023-03-07T17:04:25.005Z,0.34
2023-03-07T17:07:04.369Z,0.42
2023-03-07T17:09:34.920Z,0.36
2023-03-07T17:12:07.016Z,0.32
2023-03-07T17:14:38.316Z,0.24
2023-03-07T17:17:19.809Z,0.28
2023-03-07T17:19:48.091Z,0.37
2023-03-07T17:22:17.458Z,0.45
2023-03-07T17:24:48.367Z,0.42
2023-03-07T17:27:20.092Z,0.34
2023-03-07T17:29:54.796Z,0.31
2023-03-07T17:32:24.912Z,0.30
2023-03-07T17:34:54.957Z,0.34
2023-03-07T17:37:25.115Z,0.22
2023-03-07T17:39:55.290Z,0.17
2023-03-07T17:42:25.510Z,0.09
2023-03-07T17:44:55.531Z,0.14
2023-03-07T17:47:24.802Z,0.08
2023-03-07T17:49:54.813Z,0.02
2023-03-07T17:52:25.399Z,0.07
2023-03-07T17:54:55.442Z,0.04
2023-03-07T17:57:27.896Z,-0.06
2023-03-07T17:59:58.286Z,-0.10
2023-03-07T18:02:28.337Z,-0.10
2023-03-07T18:04:58.497Z,-0.06
2023-03-07T18:07:28.598Z,-0.11
2023-03-07T18:10:07.490Z,-0.14
2023-03-07T18:12:40.040Z,-0.10
2023-03-07T18:15:17.415Z,-0.15
2023-03-07T18:17:49.406Z,-0.11
2023-03-07T18:20:22.062Z,-0.15
2023-03-07T18:22:50.283Z,0.03
2023-03-07T18:25:19.402Z,-0.07
2023-03-07T18:27:48.137Z,-0.19
2023-03-07T18:30:16.345Z,-0.17
2023-03-07T18:32:44.677Z,-0.26
2023-03-07T18:35:15.655Z,-0.33
2023-03-07T18:37:45.759Z,-0.36
2023-03-07T18:40:16.055Z,-0.31
2023-03-07T18:42:46.095Z,-0.26
2023-03-07T18:45:16.315Z,-0.16
2023-03-07T18:47:46.360Z,-0.24
2023-03-07T18:50:16.879Z,-0.19
2023-03-07T18:52:46.897Z,-0.27
2023-03-07T18:55:17.065Z,-0.28
2023-03-07T18:57:47.051Z,-0.33
2023-03-07T19:00:17.938Z,-0.36
2023-03-07T19:02:47.999Z,-0.29
2023-03-07T19:05:18.250Z,-0.35
2023-03-07T19:07:48.249Z,-0.36
2023-03-07T19:10:18.405Z,-0.40
2023-03-07T19:12:48.459Z,-0.35
2023-03-07T19:15:18.521Z,-0.34
2023-03-07T19:17:48.505Z,-0.36
2023-03-07T19:20:18.721Z,-0.30
2023-03-07T19:22:48.908Z,-0.22
2023-03-07T19:25:19.201Z,-0.33
2023-03-07T19:27:49.211Z,-0.28
2023-03-07T19:30:20.797Z,-0.33
2023-03-07T19:32:50.879Z,-0.37
2023-03-07T19:35:22.337Z,-0.42
2023-03-07T19:37:52.328Z,-0.30
2023-03-07T19:40:26.857Z,-0.39
2023-03-07T19:42:56.887Z,-0.43
2023-03-07T19:45:27.381Z,-0.39
2023-03-07T19:47:57.378Z,-0.46
2023-03-07T19:50:27.462Z,-0.51
2023-03-07T19:52:59.153Z,-0.53
2023-03-07T19:55:30.225Z,-0.39
2023-03-07T19:57:57.663Z,-0.52
2023-03-07T20:00:26.015Z,-0.53
2023-03-07T20:02:54.406Z,-0.59
2023-03-07T20:05:23.040Z,-0.54
2023-03-07T20:07:51.242Z,-0.55
2023-03-07T20:10:19.860Z,-0.57
2023-03-07T20:12:48.831Z,-0.55
2023-03-07T20:15:16.599Z,-0.49
2023-03-07T20:17:45.024Z,-0.45
2023-03-07T20:20:13.845Z,-0.52
2023-03-07T20:22:42.464Z,-0.50
2023-03-07T20:25:11.216Z,-0.48
2023-03-07T20:27:38.794Z,-0.56
2023-03-07T20:30:08.654Z,-0.53
2023-03-07T20:32:38.344Z,-0.58
2023-03-07T20:35:06.846Z,-0.53
2023-03-07T20:37:36.038Z,-0.59
2023-03-07T20:40:06.392Z,-0.62
2023-03-07T20:42:36.213Z,-0.71
2023-03-07T20:45:07.140Z,-0.75
2023-03-07T20:47:38.530Z,-0.78
2023-03-07T20:50:10.149Z,-0.72
2023-03-07T20:52:39.327Z,-0.56
2023-03-07T20:55:09.296Z,-0.54
2023-03-07T20:57:38.928Z,-0.66
2023-03-07T21:00:10.144Z,-0.72
2023-03-07T21:02:40.564Z,-0.68
2023-03-07T21:05:10.065Z,-0.69
2023-03-07T21:07:38.288Z,-0.77
2023-03-07T21:10:07.392Z,-0.77
2023-03-07T21:12:36.252Z,-0.67
2023-03-07T21:15:03.661Z,-0.68
2023-03-07T21:17:31.882Z,-0.78
2023-03-07T21:20:00.387Z,-0.76
2023-03-07T21:22:28.703Z,-0.83
2023-03-07T21:24:57.123Z,-0.83
2023-03-07T21:27:25.570Z,-0.75
2023-03-07T21:29:54.018Z,-0.73
2023-03-07T21:32:22.755Z,-0.82
2023-03-07T21:34:50.880Z,-0.85
2023-03-07T21:37:20.678Z,-0.84
2023-03-07T21:39:50.682Z,-0.86
2023-03-07T21:42:19.290Z,-0.79
2023-03-07T21:44:47.523Z,-0.79
2023-03-07T21:47:17.369Z,-0.83
2023-03-07T21:49:47.411Z,-0.88
2023-03-07T21:52:17.461Z,-0.77
2023-03-07T21:54:47.511Z,-0.76
2023-03-07T21:57:18.004Z,-0.84
2023-03-07T21:59:48.099Z,-0.86
2023-03-07T22:07:33.231Z,-0.79
2023-03-07T22:10:04.402Z,-0.78
2023-03-07T22:12:34.674Z,-0.85
2023-03-07T22:15:05.553Z,-0.87
2023-03-07T22:17:35.900Z,-0.92
2023-03-07T22:20:05.592Z,-0.82
2023-03-07T22:22:35.405Z,-0.94
2023-03-07T22:25:06.058Z,-0.97
2023-03-07T22:27:37.612Z,-0.90
2023-03-07T22:30:09.707Z,-0.85
2023-03-07T22:32:39.776Z,-0.91
2023-03-07T22:35:10.447Z,-1.01
2023-03-07T22:37:41.822Z,-1.01
2023-03-07T22:40:11.596Z,-1.06
2023-03-07T22:42:41.124Z,-1.08
2023-03-07T22:45:11.962Z,-1.12
2023-03-07T22:47:41.371Z,-1.04
2023-03-07T22:50:11.956Z,-1.10
2023-03-07T22:52:41.728Z,-1.17
2023-03-07T22:55:11.473Z,-1.18
2023-03-07T22:57:41.324Z,-1.24
2023-03-07T23:00:12.287Z,-1.17
2023-03-07T23:02:42.871Z,-1.16
2023-03-07T23:05:12.011Z,-1.25
2023-03-07T23:07:42.651Z,-1.29
2023-03-07T23:10:12.918Z,-1.36
2023-03-07T23:12:42.508Z,-1.27
2023-03-07T23:15:12.456Z,-1.28
2023-03-07T23:17:42.318Z,-1.26
2023-03-07T23:20:14.260Z,-1.36
2023-03-07T23:22:43.198Z,-1.37
2023-03-07T23:25:15.070Z,-1.44
2023-03-07T23:27:45.278Z,-1.45
2023-03-07T23:30:17.516Z,-1.50
2023-03-07T23:32:45.863Z,-1.51
2023-03-07T23:35:15.708Z,-1.47
2023-03-07T23:37:48.353Z,-1.47
2023-03-07T23:40:19.127Z,-1.56
2023-03-07T23:42:48.872Z,-1.61
2023-03-07T23:45:20.566Z,-1.54
2023-03-07T23:47:52.632Z,-1.57
2023-03-07T23:50:22.547Z,-1.47
2023-03-07T23:52:52.553Z,-1.57
2023-03-07T23:55:23.532Z,-1.56
2023-03-07T23:57:52.356Z,-1.44
